Time;durP1;ratioP1;P1;durP2;ratioP2;P2;SDS_P1;SDS_P2;PMS_P1;PMS_P2;Temp;Humidity;BMP_temperature;BMP_pressure;BME280_temperature;BME280_humidity;BME280_pressure;Samples;Min_cycle;Max_cycle;Signal;HPM_P1;HPM_P2
2023/12/07 00:02:53;;;;;;;119.88;41.67;;;;;;;;;;10419917;27;20098;-70
2023/12/07 00:07:49;;;;;;;110.15;39.53;;;;;;;;;;10435778;27;20795;-69
2023/12/07 00:12:45;;;;;;;106.90;39.75;;;;;;;;;;10415308;27;20595;-68
2023/12/07 00:17:42;;;;;;;104.35;40.10;;;;;;;;;;10441091;27;20072;-68
2023/12/07 00:22:39;;;;;;;101.20;38.08;;;;;;;;;;10435333;27;20521;-69
2023/12/07 00:27:35;;;;;;;95.45;36.25;;;;;;;;;;10426009;27;20384;-70
2023/12/07 00:32:32;;;;;;;105.45;38.70;;;;;;;;;;10420575;27;20035;-70
2023/12/07 00:37:29;;;;;;;90.90;38.25;;;;;;;;;;10429859;27;20502;-70
2023/12/07 00:42:25;;;;;;;94.28;36.42;;;;;;;;;;10451110;27;20051;-70
2023/12/07 00:47:22;;;;;;;110.03;40.70;;;;;;;;;;10428146;27;20043;-70
2023/12/07 00:52:18;;;;;;;92.65;39.17;;;;;;;;;;10422740;27;20054;-69
2023/12/07 00:57:15;;;;;;;99.75;39.13;;;;;;;;;;10428578;27;20040;-68
2023/12/07 01:02:11;;;;;;;109.43;39.20;;;;;;;;;;10430951;27;20043;-69
2023/12/07 01:07:07;;;;;;;107.63;41.63;;;;;;;;;;10435208;27;20089;-68
2023/12/07 01:12:04;;;;;;;97.85;39.42;;;;;;;;;;10443352;27;20059;-69
2023/12/07 01:17:00;;;;;;;98.05;37.92;;;;;;;;;;10433976;27;20478;-69
2023/12/07 01:21:57;;;;;;;109.05;39.45;;;;;;;;;;10436106;27;20542;-69
2023/12/07 01:26:53;;;;;;;98.25;40.33;;;;;;;;;;10437336;27;20588;-69
2023/12/07 01:31:49;;;;;;;97.13;38.38;;;;;;;;;;10441072;27;20047;-70
2023/12/07 01:36:46;;;;;;;97.25;38.25;;;;;;;;;;10453905;27;20050;-69
2023/12/07 01:41:43;;;;;;;108.78;38.47;;;;;;;;;;10432063;27;20126;-70
2023/12/07 01:46:39;;;;;;;93.97;36.88;;;;;;;;;;10451546;27;20051;-71
2023/12/07 01:51:36;;;;;;;100.63;37.65;;;;;;;;;;10423532;27;20047;-68
2023/12/07 01:56:32;;;;;;;91.82;38.63;;;;;;;;;;10435978;27;20050;-69
2023/12/07 02:01:28;;;;;;;85.07;37.30;;;;;;;;;;10438407;27;20112;-68
2023/12/07 02:06:26;;;;;;;91.03;36.83;;;;;;;;;;10438998;27;20559;-69
2023/12/07 02:11:22;;;;;;;94.93;37.83;;;;;;;;;;10424289;27;20692;-68
2023/12/07 02:16:25;;;;;;;101.90;38.63;;;;;;;;;;10443934;27;20039;-70
2023/12/07 02:21:25;;;;;;;91.97;38.00;;;;;;;;;;10423669;27;20075;-69
2023/12/07 02:26:39;;;;;;;104.32;39.13;;;;;;;;;;10406641;27;20047;-69
2023/12/07 02:31:36;;;;;;;106.28;38.17;;;;;;;;;;10429281;27;20057;-68
2023/12/07 02:36:34;;;;;;;101.15;38.28;;;;;;;;;;10426908;27;20047;-68
2023/12/07 02:41:31;;;;;;;93.45;38.42;;;;;;;;;;10422968;27;20483;-68
2023/12/07 02:46:27;;;;;;;107.95;39.40;;;;;;;;;;10437403;27;20092;-68
2023/12/07 02:51:24;;;;;;;105.25;38.10;;;;;;;;;;10455045;27;20043;-69
2023/12/07 02:56:20;;;;;;;99.78;39.33;;;;;;;;;;10419890;27;20048;-69
2023/12/07 03:01:17;;;;;;;100.15;38.25;;;;;;;;;;10423540;27;20061;-69
2023/12/07 03:06:13;;;;;;;98.22;36.67;;;;;;;;;;10418811;27;20201;-68
2023/12/07 03:11:10;;;;;;;97.82;38.72;;;;;;;;;;10452849;27;20047;-70
2023/12/07 03:16:07;;;;;;;87.60;36.67;;;;;;;;;;10426421;27;20051;-68
2023/12/07 03:21:03;;;;;;;88.43;35.80;;;;;;;;;;10429486;27;20125;-69
2023/12/07 03:26:00;;;;;;;84.72;36.22;;;;;;;;;;10433063;27;20042;-70
2023/12/07 03:30:56;;;;;;;82.97;36.72;;;;;;;;;;10413147;27;20051;-69
2023/12/07 03:35:52;;;;;;;74.13;33.13;;;;;;;;;;10427412;27;20043;-69
2023/12/07 03:40:49;;;;;;;95.85;36.85;;;;;;;;;;10443225;27;20050;-68
2023/12/07 03:45:46;;;;;;;82.70;36.13;;;;;;;;;;10444156;27;20051;-68
2023/12/07 03:50:42;;;;;;;81.93;35.65;;;;;;;;;;10432308;27;20049;-68
2023/12/07 03:55:38;;;;;;;83.15;36.83;;;;;;;;;;10447214;27;20047;-68
2023/12/07 04:00:35;;;;;;;78.75;35.30;;;;;;;;;;10427314;27;20070;-69
2023/12/07 04:05:31;;;;;;;82.75;37.53;;;;;;;;;;10458342;27;20059;-68
2023/12/07 04:10:28;;;;;;;84.10;39.35;;;;;;;;;;10429288;27;20043;-68
2023/12/07 04:15:25;;;;;;;85.53;37.25;;;;;;;;;;10445037;27;20494;-68
2023/12/07 04:20:21;;;;;;;82.32;36.10;;;;;;;;;;10439075;27;20052;-68
2023/12/07 04:25:18;;;;;;;89.57;38.92;;;;;;;;;;10435205;27;20083;-69
2023/12/07 04:30:14;;;;;;;72.88;37.90;;;;;;;;;;10435899;27;20043;-69
2023/12/07 04:35:10;;;;;;;77.28;36.22;;;;;;;;;;10447116;27;20035;-69
2023/12/07 04:40:07;;;;;;;70.13;35.70;;;;;;;;;;10426830;27;20053;-69
2023/12/07 04:45:04;;;;;;;80.07;37.97;;;;;;;;;;10443855;27;20070;-68
2023/12/07 04:50:00;;;;;;;78.78;37.70;;;;;;;;;;10439452;27;20091;-69
2023/12/07 04:54:57;;;;;;;71.32;37.78;;;;;;;;;;10436728;27;20047;-69
2023/12/07 04:59:53;;;;;;;76.00;37.67;;;;;;;;;;10418716;27;20043;-68
2023/12/07 05:04:49;;;;;;;79.70;40.88;;;;;;;;;;10418361;27;20077;-69
2023/12/07 05:09:45;;;;;;;68.65;36.80;;;;;;;;;;10447951;27;20035;-69
2023/12/07 05:14:42;;;;;;;74.40;38.65;;;;;;;;;;10433264;27;20043;-69
2023/12/07 05:19:38;;;;;;;74.32;36.80;;;;;;;;;;10446006;27;20077;-69
2023/12/07 05:24:35;;;;;;;71.13;36.30;;;;;;;;;;10430438;27;20047;-68
2023/12/07 05:29:31;;;;;;;64.68;34.88;;;;;;;;;;10421119;27;20043;-69
2023/12/07 05:34:28;;;;;;;67.60;35.50;;;;;;;;;;10415813;27;20047;-69
2023/12/07 05:39:25;;;;;;;71.30;34.90;;;;;;;;;;10420252;27;20051;-68
2023/12/07 05:44:22;;;;;;;60.55;33.38;;;;;;;;;;10428684;27;20118;-69
2023/12/07 05:49:18;;;;;;;68.22;34.97;;;;;;;;;;10447395;27;20055;-69
2023/12/07 05:54:15;;;;;;;66.97;33.55;;;;;;;;;;10451553;27;20107;-67
2023/12/07 05:59:11;;;;;;;67.68;33.78;;;;;;;;;;10426120;27;20055;-68
2023/12/07 06:04:09;;;;;;;61.40;33.28;;;;;;;;;;10434241;27;20043;-68
2023/12/07 06:09:05;;;;;;;60.10;32.97;;;;;;;;;;10439991;27;20035;-68
2023/12/07 06:14:02;;;;;;;64.78;34.97;;;;;;;;;;10435882;27;20073;-68
2023/12/07 06:18:59;;;;;;;58.38;32.63;;;;;;;;;;10416601;27;20595;-68
2023/12/07 06:23:56;;;;;;;59.80;33.78;;;;;;;;;;10410230;27;20051;-67
2023/12/07 06:28:52;;;;;;;65.30;34.38;;;;;;;;;;10422240;27;20039;-68
2023/12/07 06:33:48;;;;;;;65.65;34.67;;;;;;;;;;10434497;27;20071;-68
2023/12/07 06:38:45;;;;;;;55.35;30.83;;;;;;;;;;10422819;27;20039;-69
2023/12/07 06:43:43;;;;;;;61.90;34.10;;;;;;;;;;10388915;27;20047;-69
2023/12/07 06:48:40;;;;;;;71.00;36.97;;;;;;;;;;10431954;27;20039;-70
2023/12/07 06:53:38;;;;;;;71.30;34.13;;;;;;;;;;10433335;27;20039;-70
2023/12/07 06:58:34;;;;;;;74.93;37.33;;;;;;;;;;10427013;27;20420;-70
2023/12/07 07:03:31;;;;;;;61.90;34.53;;;;;;;;;;10407214;27;20043;-70
2023/12/07 07:08:28;;;;;;;56.95;32.78;;;;;;;;;;10414699;27;20045;-70
2023/12/07 07:13:25;;;;;;;59.55;35.10;;;;;;;;;;10424941;27;20455;-71
2023/12/07 07:18:23;;;;;;;63.28;36.17;;;;;;;;;;10437487;27;20043;-71
2023/12/07 07:23:20;;;;;;;61.80;35.58;;;;;;;;;;10442501;27;20081;-71
2023/12/07 07:28:17;;;;;;;56.03;34.72;;;;;;;;;;10419249;27;20105;-68
2023/12/07 07:33:14;;;;;;;67.47;36.65;;;;;;;;;;10431941;27;20048;-70
2023/12/07 07:38:10;;;;;;;64.55;37.90;;;;;;;;;;10399700;27;20039;-72
2023/12/07 07:43:07;;;;;;;74.25;39.17;;;;;;;;;;10429496;27;20050;-72
2023/12/07 07:48:03;;;;;;;70.30;35.33;;;;;;;;;;10453050;27;20113;-69
2023/12/07 07:53:01;;;;;;;64.57;39.10;;;;;;;;;;10423421;27;20470;-70
2023/12/07 07:57:57;;;;;;;67.90;34.92;;;;;;;;;;10410662;27;20464;-71
2023/12/07 08:02:54;;;;;;;65.72;37.20;;;;;;;;;;10420682;27;20045;-70
2023/12/07 08:07:52;;;;;;;66.32;34.60;;;;;;;;;;10434778;27;20042;-69
2023/12/07 08:12:50;;;;;;;62.38;36.42;;;;;;;;;;10441157;27;20051;-69
2023/12/07 08:17:46;;;;;;;73.35;38.05;;;;;;;;;;10435412;27;20045;-70
2023/12/07 08:22:43;;;;;;;69.38;38.20;;;;;;;;;;10449766;27;20044;-70
2023/12/07 08:27:39;;;;;;;69.53;35.95;;;;;;;;;;10442754;27;20047;-70
2023/12/07 08:32:36;;;;;;;66.28;37.00;;;;;;;;;;10448004;27;20051;-71
2023/12/07 08:37:33;;;;;;;73.60;38.95;;;;;;;;;;10426537;27;20533;-70
2023/12/07 08:42:31;;;;;;;78.97;40.35;;;;;;;;;;10451363;27;20550;-71
2023/12/07 08:47:30;;;;;;;63.75;36.08;;;;;;;;;;10451069;27;20095;-71
2023/12/07 08:52:27;;;;;;;67.25;35.65;;;;;;;;;;10432626;27;20107;-73
2023/12/07 08:57:40;;;;;;;67.85;38.38;;;;;;;;;;10432136;27;20054;-74
2023/12/07 09:02:37;;;;;;;70.53;39.83;;;;;;;;;;10435574;27;20506;-73
2023/12/07 09:07:43;;;;;;;63.35;36.95;;;;;;;;;;10428791;27;20074;-73
2023/12/07 09:12:39;;;;;;;75.53;40.15;;;;;;;;;;10433061;27;20052;-74
2023/12/07 09:17:37;;;;;;;69.00;39.65;;;;;;;;;;10445735;27;20039;-74
2023/12/07 09:22:33;;;;;;;69.85;40.45;;;;;;;;;;10424830;27;20086;-74
2023/12/07 09:27:34;;;;;;;81.47;41.75;;;;;;;;;;10432104;27;20130;-74
2023/12/07 09:32:31;;;;;;;76.35;42.05;;;;;;;;;;10434438;27;20129;-72
2023/12/07 09:37:40;;;;;;;69.13;39.08;;;;;;;;;;10433168;22;20388;-73
2023/12/07 09:42:39;;;;;;;70.30;41.22;;;;;;;;;;10319488;28;20068;-72
2023/12/07 09:47:37;;;;;;;64.72;39.65;;;;;;;;;;10316827;28;20055;-72
2023/12/07 09:52:34;;;;;;;76.03;43.20;;;;;;;;;;10335433;28;20049;-72
2023/12/07 09:57:30;;;;;;;71.25;39.75;;;;;;;;;;10321423;28;20053;-72
2023/12/07 10:02:28;;;;;;;67.63;38.90;;;;;;;;;;10340600;28;20424;-71
2023/12/07 10:07:32;;;;;;;67.32;38.45;;;;;;;;;;10329716;28;20045;-73
2023/12/07 10:12:35;;;;;;;74.97;39.47;;;;;;;;;;10345289;28;20044;-72
2023/12/07 10:17:51;;;;;;;68.80;42.00;;;;;;;;;;10340229;28;20048;-72
2023/12/07 10:22:48;;;;;;;67.25;40.35;;;;;;;;;;10325597;28;20060;-72
2023/12/07 10:27:44;;;;;;;73.07;41.50;;;;;;;;;;10334653;28;20048;-73
2023/12/07 10:32:41;;;;;;;73.13;42.70;;;;;;;;;;10311918;28;20060;-71
2023/12/07 10:37:37;;;;;;;69.95;41.83;;;;;;;;;;10333736;28;20103;-72
2023/12/07 10:42:36;;;;;;;80.13;43.00;;;;;;;;;;10334945;28;20415;-72
2023/12/07 10:47:37;;;;;;;77.07;44.13;;;;;;;;;;10337771;28;20059;-72
2023/12/07 10:52:36;;;;;;;77.45;43.20;;;;;;;;;;10340929;28;20060;-72
2023/12/07 11:03:16;;;;;;;87.72;48.17;;;;;;;;;;9470319;26;20065;-74
2023/12/07 11:09:21;;;;;;;;;;;;;;;;;;;;;
2023/12/07 11:20:47;;;;;;;78.88;43.60;;;;;;;;;;10165930;28;20578;-74
2023/12/07 11:26:28;;;;;;;74.28;41.28;;;;;;;;;;10168272;28;21058;-73
2023/12/07 11:32:36;;;;;;;69.57;40.97;;;;;;;;;;10179140;28;20045;-74
2023/12/07 11:43:58;;;;;;;;;;;;;;;;;;;;;
2023/12/07 11:55:12;;;;;;;82.85;43.92;;;;;;;;;;10333897;28;20056;-74
2023/12/07 12:00:08;;;;;;;78.22;45.30;;;;;;;;;;10473689;22;20130;-73
2023/12/07 12:05:05;;;;;;;82.20;46.25;;;;;;;;;;10385202;28;20044;-74
2023/12/07 12:10:03;;;;;;;85.25;45.35;;;;;;;;;;10345135;28;20040;-74
2023/12/07 12:15:00;;;;;;;89.38;44.45;;;;;;;;;;10346755;28;20098;-74
2023/12/07 12:19:57;;;;;;;85.25;42.17;;;;;;;;;;10339090;28;20139;-74
2023/12/07 12:24:54;;;;;;;90.35;42.67;;;;;;;;;;10346406;28;20063;-74
2023/12/07 12:29:50;;;;;;;74.57;43.42;;;;;;;;;;10339736;28;20040;-71
2023/12/07 12:34:50;;;;;;;74.43;39.35;;;;;;;;;;10331255;28;20113;-73
2023/12/07 12:39:46;;;;;;;77.25;42.25;;;;;;;;;;10339501;28;20052;-73
2023/12/07 12:44:43;;;;;;;71.07;39.83;;;;;;;;;;10337814;28;20102;-73
2023/12/07 12:49:42;;;;;;;60.72;36.35;;;;;;;;;;10341427;28;20556;-74
2023/12/07 12:54:38;;;;;;;72.28;40.83;;;;;;;;;;10344612;28;20087;-74
2023/12/07 12:59:35;;;;;;;66.70;37.00;;;;;;;;;;10348613;28;20055;-73
2023/12/07 13:04:31;;;;;;;66.13;39.63;;;;;;;;;;10338135;28;20543;-73
2023/12/07 13:09:37;;;;;;;65.40;38.42;;;;;;;;;;10345370;28;20526;-73
2023/12/07 13:14:35;;;;;;;65.50;36.58;;;;;;;;;;10349979;28;20039;-74
2023/12/07 13:19:33;;;;;;;65.82;39.63;;;;;;;;;;10350523;28;20047;-74
2023/12/07 13:24:29;;;;;;;60.88;35.58;;;;;;;;;;10339724;28;20477;-73
2023/12/07 13:29:26;;;;;;;69.03;36.80;;;;;;;;;;10332554;28;20101;-73
2023/12/07 13:34:32;;;;;;;68.35;38.53;;;;;;;;;;10333567;28;20044;-73
2023/12/07 13:39:30;;;;;;;63.95;36.03;;;;;;;;;;10333426;28;20051;-73
2023/12/07 13:44:27;;;;;;;71.15;41.50;;;;;;;;;;10340190;28;20071;-71
2023/12/07 13:49:24;;;;;;;61.40;36.30;;;;;;;;;;10341519;28;20044;-72
2023/12/07 13:54:32;;;;;;;63.08;37.83;;;;;;;;;;10332902;28;20063;-71
2023/12/07 13:59:46;;;;;;;62.20;36.63;;;;;;;;;;10341826;28;20051;-72
2023/12/07 14:04:43;;;;;;;59.45;35.63;;;;;;;;;;10339582;28;20185;-72
2023/12/07 14:09:42;;;;;;;70.78;36.55;;;;;;;;;;10464095;22;20050;-72
2023/12/07 14:14:52;;;;;;;63.17;34.22;;;;;;;;;;10386634;28;20085;-72
2023/12/07 14:19:48;;;;;;;67.45;36.58;;;;;;;;;;10349921;27;20512;-72
2023/12/07 14:24:47;;;;;;;57.03;34.65;;;;;;;;;;10378083;27;20078;-72
2023/12/07 14:29:44;;;;;;;61.50;34.33;;;;;;;;;;10352574;28;20089;-72
2023/12/07 14:34:41;;;;;;;59.33;37.05;;;;;;;;;;10347812;28;20043;-71
2023/12/07 14:39:41;;;;;;;67.05;36.63;;;;;;;;;;10352218;28;20465;-71
2023/12/07 14:44:37;;;;;;;60.38;33.22;;;;;;;;;;10333776;28;20158;-73
2023/12/07 14:49:34;;;;;;;58.58;34.40;;;;;;;;;;10377867;22;20055;-72
2023/12/07 14:54:31;;;;;;;58.58;34.00;;;;;;;;;;10382887;28;20043;-72
2023/12/07 14:59:28;;;;;;;60.38;34.50;;;;;;;;;;10367884;28;20120;-73
2023/12/07 15:04:24;;;;;;;55.35;32.70;;;;;;;;;;10345881;28;20089;-73
2023/12/07 15:09:30;;;;;;;49.13;31.45;;;;;;;;;;10344687;28;21923;-73
2023/12/07 15:14:26;;;;;;;56.25;34.22;;;;;;;;;;10349601;28;20040;-73
2023/12/07 15:19:33;;;;;;;58.15;34.58;;;;;;;;;;10333638;28;20048;-73
2023/12/07 15:24:30;;;;;;;52.67;33.45;;;;;;;;;;10335534;28;20044;-72
2023/12/07 15:29:33;;;;;;;43.22;30.42;;;;;;;;;;10348452;28;20040;-72
2023/12/07 15:34:30;;;;;;;49.15;30.60;;;;;;;;;;10351128;28;20044;-72
2023/12/07 15:39:35;;;;;;;46.33;30.23;;;;;;;;;;10345211;28;20041;-71
2023/12/07 15:44:32;;;;;;;46.03;31.13;;;;;;;;;;10344495;28;20040;-72
2023/12/07 15:49:28;;;;;;;54.58;32.85;;;;;;;;;;10345046;28;20468;-72
2023/12/07 15:54:25;;;;;;;49.30;32.70;;;;;;;;;;10338957;28;20044;-72
2023/12/07 15:59:34;;;;;;;49.03;31.15;;;;;;;;;;10354461;28;20105;-72
2023/12/07 16:04:31;;;;;;;47.97;31.08;;;;;;;;;;10339858;28;20492;-72
2023/12/07 16:09:32;;;;;;;56.20;33.47;;;;;;;;;;10345411;28;20060;-72
2023/12/07 16:14:28;;;;;;;48.63;32.15;;;;;;;;;;10347007;28;20169;-72
2023/12/07 16:19:27;;;;;;;53.13;33.47;;;;;;;;;;10347797;28;20042;-71
2023/12/07 16:24:24;;;;;;;51.42;32.22;;;;;;;;;;10347622;28;20040;-72
2023/12/07 16:29:23;;;;;;;47.22;31.30;;;;;;;;;;10332156;28;20040;-72
2023/12/07 16:34:20;;;;;;;51.13;32.20;;;;;;;;;;10337914;28;20481;-72
2023/12/07 16:39:17;;;;;;;49.35;32.45;;;;;;;;;;10324013;28;20052;-72
2023/12/07 16:44:14;;;;;;;47.35;31.80;;;;;;;;;;10338798;28;20043;-71
2023/12/07 16:49:11;;;;;;;51.33;33.03;;;;;;;;;;10344604;28;20040;-72
2023/12/07 16:54:08;;;;;;;50.75;31.50;;;;;;;;;;10332971;28;20139;-72
2023/12/07 16:59:04;;;;;;;50.15;31.30;;;;;;;;;;10328869;28;20117;-72
2023/12/07 17:04:01;;;;;;;55.45;31.38;;;;;;;;;;10330259;28;20066;-72
2023/12/07 17:08:58;;;;;;;51.05;32.33;;;;;;;;;;10337807;27;20044;-71
2023/12/07 17:13:57;;;;;;;49.35;32.42;;;;;;;;;;10330820;28;20052;-72
2023/12/07 17:18:54;;;;;;;43.83;29.90;;;;;;;;;;10353717;28;20047;-72
2023/12/07 17:23:51;;;;;;;41.03;29.58;;;;;;;;;;10356140;28;20047;-72
2023/12/07 17:28:48;;;;;;;45.67;32.47;;;;;;;;;;10347101;28;20415;-72
2023/12/07 17:33:44;;;;;;;52.95;33.13;;;;;;;;;;10360260;28;20048;-72
2023/12/07 17:38:41;;;;;;;47.47;30.30;;;;;;;;;;10342701;28;20725;-72
2023/12/07 17:43:38;;;;;;;48.95;31.05;;;;;;;;;;10337785;28;20078;-73
2023/12/07 17:48:35;;;;;;;44.85;28.70;;;;;;;;;;10349860;28;20127;-72
2023/12/07 17:53:31;;;;;;;49.15;30.20;;;;;;;;;;10342509;28;20048;-72
2023/12/07 17:58:27;;;;;;;39.92;28.23;;;;;;;;;;10327311;28;20040;-73
2023/12/07 18:03:24;;;;;;;39.42;26.60;;;;;;;;;;10330049;28;20056;-73
2023/12/07 18:08:23;;;;;;;41.80;28.40;;;;;;;;;;10326116;28;20165;-73
2023/12/07 18:13:19;;;;;;;39.97;27.02;;;;;;;;;;10329576;28;20074;-72
2023/12/07 18:18:16;;;;;;;49.70;29.63;;;;;;;;;;10331966;28;21935;-72
2023/12/07 18:23:12;;;;;;;46.63;30.27;;;;;;;;;;10339797;28;20127;-71
2023/12/07 18:28:09;;;;;;;45.13;29.25;;;;;;;;;;10334051;28;20051;-72
2023/12/07 18:33:06;;;;;;;50.38;30.63;;;;;;;;;;10333564;28;20051;-72
2023/12/07 18:38:04;;;;;;;48.90;28.02;;;;;;;;;;10340316;28;20051;-72
2023/12/07 18:43:01;;;;;;;47.65;29.63;;;;;;;;;;10338033;28;20040;-72
2023/12/07 18:47:58;;;;;;;50.85;27.88;;;;;;;;;;10333549;28;20058;-72
2023/12/07 18:52:55;;;;;;;52.33;29.83;;;;;;;;;;10329048;28;20059;-72
2023/12/07 18:57:54;;;;;;;50.38;29.23;;;;;;;;;;10341652;28;20044;-72
2023/12/07 19:02:53;;;;;;;42.10;26.80;;;;;;;;;;10371649;28;20040;-72
2023/12/07 19:07:52;;;;;;;46.75;26.98;;;;;;;;;;10374584;28;20044;-72
2023/12/07 19:12:51;;;;;;;43.70;27.10;;;;;;;;;;10353600;28;20096;-72
2023/12/07 19:17:48;;;;;;;41.15;27.55;;;;;;;;;;10353267;28;20039;-72
2023/12/07 19:22:48;;;;;;;44.70;27.98;;;;;;;;;;10357152;28;20047;-72
2023/12/07 19:27:47;;;;;;;47.08;28.27;;;;;;;;;;10336005;28;20047;-72
2023/12/07 19:32:43;;;;;;;44.35;28.17;;;;;;;;;;10346595;28;20051;-72
2023/12/07 19:37:40;;;;;;;48.15;28.67;;;;;;;;;;10329587;28;20048;-72
2023/12/07 19:42:36;;;;;;;46.67;28.60;;;;;;;;;;10335894;28;20071;-72
2023/12/07 19:47:35;;;;;;;43.35;28.98;;;;;;;;;;10353588;28;20040;-72
2023/12/07 19:52:34;;;;;;;50.47;29.40;;;;;;;;;;10354426;28;20052;-72
2023/12/07 19:57:32;;;;;;;54.80;30.77;;;;;;;;;;10349016;28;20044;-72
2023/12/07 20:02:30;;;;;;;50.83;29.50;;;;;;;;;;10346426;28;20047;-72
2023/12/07 20:07:26;;;;;;;50.55;30.08;;;;;;;;;;10336833;28;20049;-72
2023/12/07 20:12:23;;;;;;;51.08;30.05;;;;;;;;;;10345461;28;20087;-72
2023/12/07 20:17:19;;;;;;;50.53;29.45;;;;;;;;;;10361175;22;20048;-72
2023/12/07 20:22:16;;;;;;;47.50;28.65;;;;;;;;;;10371364;28;20048;-72
2023/12/07 20:27:12;;;;;;;45.10;27.48;;;;;;;;;;10366184;27;20140;-72
2023/12/07 20:32:09;;;;;;;47.33;28.23;;;;;;;;;;10342914;28;20051;-72
2023/12/07 20:37:06;;;;;;;48.75;27.67;;;;;;;;;;10330720;28;20616;-72
2023/12/07 20:42:03;;;;;;;49.72;28.65;;;;;;;;;;10348396;28;20043;-73
2023/12/07 20:47:02;;;;;;;49.83;28.67;;;;;;;;;;10344228;28;20603;-70
2023/12/07 20:51:59;;;;;;;48.92;29.15;;;;;;;;;;10340728;28;20058;-71
2023/12/07 20:56:55;;;;;;;53.67;28.08;;;;;;;;;;10342374;28;20053;-71
2023/12/07 21:01:51;;;;;;;57.63;31.95;;;;;;;;;;10341695;28;20051;-69
2023/12/07 21:06:48;;;;;;;56.33;30.27;;;;;;;;;;10329988;28;20463;-70
2023/12/07 21:11:45;;;;;;;53.08;30.30;;;;;;;;;;10334112;28;20408;-70
2023/12/07 21:16:41;;;;;;;59.40;31.02;;;;;;;;;;10338862;28;20403;-70
2023/12/07 21:21:38;;;;;;;58.05;30.90;;;;;;;;;;10341984;28;20044;-73
2023/12/07 21:26:34;;;;;;;54.63;29.35;;;;;;;;;;10340873;28;20619;-71
2023/12/07 21:31:30;;;;;;;49.83;28.13;;;;;;;;;;10351371;27;20036;-72
2023/12/07 21:36:27;;;;;;;43.35;24.98;;;;;;;;;;10336181;28;20044;-72
2023/12/07 21:41:23;;;;;;;55.88;27.63;;;;;;;;;;10332372;28;20052;-70
2023/12/07 21:46:20;;;;;;;53.13;26.60;;;;;;;;;;10348533;28;20040;-74
2023/12/07 21:51:17;;;;;;;52.35;28.88;;;;;;;;;;10345136;28;20043;-74
2023/12/07 21:56:14;;;;;;;47.38;25.70;;;;;;;;;;10347902;28;20044;-71
2023/12/07 22:01:14;;;;;;;49.75;27.00;;;;;;;;;;10349692;28;20055;-73
2023/12/07 22:06:10;;;;;;;49.10;26.65;;;;;;;;;;10353157;28;20048;-72
2023/12/07 22:11:08;;;;;;;45.78;25.60;;;;;;;;;;10340299;28;20041;-72
2023/12/07 22:16:04;;;;;;;49.03;28.08;;;;;;;;;;10339688;28;20185;-73
2023/12/07 22:21:01;;;;;;;50.70;26.83;;;;;;;;;;10329615;28;20048;-70
2023/12/07 22:25:57;;;;;;;46.70;26.58;;;;;;;;;;10341381;28;20507;-71
2023/12/07 22:30:54;;;;;;;40.10;24.13;;;;;;;;;;10335207;28;20044;-69
2023/12/07 22:35:50;;;;;;;44.97;25.63;;;;;;;;;;10336792;28;20086;-68
2023/12/07 22:40:46;;;;;;;47.40;25.05;;;;;;;;;;10323972;28;20131;-70
2023/12/07 22:45:43;;;;;;;42.70;24.00;;;;;;;;;;10348154;28;20094;-70
2023/12/07 22:50:39;;;;;;;44.15;24.98;;;;;;;;;;10343310;28;20044;-70
2023/12/07 22:55:35;;;;;;;44.05;24.33;;;;;;;;;;10342508;28;20040;-70
2023/12/07 23:00:32;;;;;;;45.88;25.48;;;;;;;;;;10362121;28;20045;-70
2023/12/07 23:05:28;;;;;;;46.03;23.67;;;;;;;;;;10337204;28;20055;-72
2023/12/07 23:10:25;;;;;;;46.05;25.38;;;;;;;;;;10331591;28;20040;-72
2023/12/07 23:15:21;;;;;;;44.10;25.65;;;;;;;;;;10339704;28;20453;-72
2023/12/07 23:20:18;;;;;;;42.95;24.90;;;;;;;;;;10336838;28;20048;-73
2023/12/07 23:25:14;;;;;;;42.35;24.08;;;;;;;;;;10344152;28;20087;-73
2023/12/07 23:30:11;;;;;;;43.95;24.10;;;;;;;;;;10337696;28;20083;-73
2023/12/07 23:35:07;;;;;;;44.95;24.90;;;;;;;;;;10338320;28;20044;-71
2023/12/07 23:40:04;;;;;;;43.30;24.30;;;;;;;;;;10332392;28;20268;-71
2023/12/07 23:45:00;;;;;;;48.50;25.60;;;;;;;;;;10328390;28;20040;-72
2023/12/07 23:49:57;;;;;;;49.15;26.38;;;;;;;;;;10345867;28;20040;-72
2023/12/07 23:54:53;;;;;;;43.03;24.60;;;;;;;;;;10345938;28;20048;-75
2023/12/07 23:59:50;;;;;;;41.00;23.20;;;;;;;;;;10335462;28;20059;-73
